Time;durP1;ratioP1;P1;durP2;ratioP2;P2;SDS_P1;SDS_P2;PMS_P1;PMS_P2;Temp;Humidity;BMP_temperature;BMP_pressure;BME280_temperature;BME280_humidity;BME280_pressure;Samples;Min_cycle;Max_cycle;Signal;HPM_P1;HPM_P2
2023/06/15 00:01:51;;;;;;;0.80;0.80;;;;;;;24.34;100.00;99941.28;5071348;28;20268;-75
2023/06/15 00:04:18;;;;;;;0.93;0.93;;;;;;;24.19;100.00;99918.97;5071311;28;20230;-75
2023/06/15 00:06:44;;;;;;;0.70;0.70;;;;;;;24.35;100.00;99937.72;5071225;28;20230;-76
2023/06/15 00:09:12;;;;;;;0.70;0.70;;;;;;;24.41;100.00;99935.66;5071093;28;20202;-77
2023/06/15 00:11:39;;;;;;;0.80;0.80;;;;;;;24.36;100.00;99929.72;5070971;28;20252;-74
2023/06/15 00:14:06;;;;;;;0.70;0.70;;;;;;;24.48;100.00;99941.56;5071365;28;20595;-75
2023/06/15 00:16:33;;;;;;;0.77;0.77;;;;;;;24.42;100.00;99939.19;5070897;28;20210;-75
2023/06/15 00:19:02;;;;;;;0.80;0.80;;;;;;;24.41;100.00;99921.53;5070071;28;20199;-76
2023/06/15 00:21:30;;;;;;;0.63;0.63;;;;;;;24.44;100.00;99942.59;5071648;28;20199;-76
2023/06/15 00:23:57;;;;;;;0.80;0.80;;;;;;;24.35;100.00;99938.59;5071075;28;20267;-76
2023/06/15 00:26:26;;;;;;;0.85;0.85;;;;;;;24.36;100.00;99942.09;5071138;28;20198;-76
2023/06/15 00:28:53;;;;;;;0.80;0.80;;;;;;;24.34;100.00;99946.59;5052747;28;20646;-74
2023/06/15 00:31:20;;;;;;;0.75;0.75;;;;;;;24.34;100.00;99925.41;5071143;28;20267;-76
2023/06/15 00:33:46;;;;;;;0.77;0.77;;;;;;;24.40;100.00;99941.06;5070816;28;20222;-75
2023/06/15 00:36:15;;;;;;;0.80;0.80;;;;;;;24.52;100.00;99929.88;5070505;28;20198;-77
2023/06/15 00:38:41;;;;;;;0.70;0.70;;;;;;;23.90;100.00;99861.91;5070491;28;20222;-75
2023/06/15 00:41:08;;;;;;;0.70;0.70;;;;;;;24.35;100.00;99949.19;5068933;28;20631;-75
2023/06/15 00:43:35;;;;;;;0.80;0.80;;;;;;;24.32;100.00;99943.16;5070382;28;20210;-75
2023/06/15 00:46:02;;;;;;;0.70;0.70;;;;;;;24.32;100.00;99935.22;5072467;28;20226;-74
2023/06/15 00:48:30;;;;;;;1.33;1.33;;;;;;;24.31;100.00;99938.78;5074632;28;20199;-75
2023/06/15 00:50:57;;;;;;;0.80;0.80;;;;;;;24.19;100.00;99921.63;5074287;28;20202;-76
2023/06/15 00:53:25;;;;;;;0.93;0.93;;;;;;;24.37;100.00;99943.81;5074730;28;20222;-76
2023/06/15 00:55:53;;;;;;;0.70;0.70;;;;;;;24.31;100.00;99941.44;5074973;28;20199;-75
2023/06/15 00:58:20;;;;;;;0.70;0.70;;;;;;;24.25;100.00;99925.81;5075113;28;20210;-76
2023/06/15 01:00:49;;;;;;;0.60;0.60;;;;;;;24.38;100.00;99937.59;5069920;28;20672;-76
2023/06/15 01:03:20;;;;;;;0.90;0.90;;;;;;;24.13;100.00;99903.34;5054843;28;20558;-76
2023/06/15 01:05:47;;;;;;;0.65;0.65;;;;;;;24.26;100.00;99930.19;5054638;28;20226;-76
2023/06/15 01:08:16;;;;;;;0.88;0.88;;;;;;;24.31;100.00;99936.13;5058575;28;20205;-76
2023/06/15 01:10:45;;;;;;;0.70;0.70;;;;;;;24.28;100.00;99942.44;5074509;28;20623;-75
2023/06/15 01:13:13;;;;;;;0.70;0.70;;;;;;;24.14;100.00;99935.09;5074561;28;20238;-76
2023/06/15 01:15:40;;;;;;;0.63;0.63;;;;;;;23.97;100.00;99916.34;5074467;28;20237;-76
2023/06/15 01:18:09;;;;;;;0.70;0.70;;;;;;;24.15;100.00;99936.78;5074596;28;20641;-74
2023/06/15 01:20:39;;;;;;;0.70;0.70;;;;;;;24.11;100.00;99935.16;5074471;28;20195;-75
2023/06/15 01:23:27;;;;;;;0.70;0.70;;;;;;;24.09;100.00;99925.56;5074357;28;20195;-75
2023/06/15 01:26:06;;;;;;;1.25;1.10;;;;;;;23.83;100.00;99905.47;5074417;28;20203;-75
2023/06/15 01:28:34;;;;;;;0.70;0.70;;;;;;;23.84;100.00;99915.16;5074303;28;20222;-75
2023/06/15 01:31:02;;;;;;;0.65;0.65;;;;;;;23.71;100.00;99898.06;5074208;28;20222;-75
2023/06/15 01:33:30;;;;;;;0.70;0.70;;;;;;;23.75;100.00;99915.53;5074047;28;20227;-75
2023/06/15 01:35:57;;;;;;;0.70;0.70;;;;;;;23.77;100.00;99918.09;5073853;28;20213;-75
2023/06/15 01:38:27;;;;;;;0.70;0.70;;;;;;;23.84;100.00;99912.50;5073891;28;20268;-75
2023/06/15 01:40:55;;;;;;;0.70;0.70;;;;;;;23.80;100.00;99912.69;5073432;28;20202;-75
2023/06/15 01:43:27;;;;;;;0.70;0.70;;;;;;;23.74;100.00;99903.22;5073638;28;20654;-76
2023/06/15 01:45:56;;;;;;;0.70;0.70;;;;;;;23.76;100.00;99904.00;5074233;28;20268;-75
2023/06/15 01:48:25;;;;;;;0.80;0.80;;;;;;;23.32;100.00;99887.28;5073413;28;20210;-74
2023/06/15 01:50:52;;;;;;;0.73;0.73;;;;;;;23.20;100.00;99895.69;5035485;28;20203;-75
2023/06/15 01:53:19;;;;;;;0.80;0.80;;;;;;;23.11;100.00;99894.28;5051785;28;20234;-74
2023/06/15 01:55:46;;;;;;;0.80;0.80;;;;;;;22.83;100.00;99875.09;5068227;28;20608;-75
2023/06/15 01:58:15;;;;;;;0.50;0.50;;;;;;;22.54;100.00;99891.16;5072529;28;20264;-74
2023/06/15 02:00:43;;;;;;;0.75;0.75;;;;;;;22.44;100.00;99871.28;5071576;28;20673;-76
2023/06/15 02:03:11;;;;;;;0.80;0.80;;;;;;;22.16;100.00;99890.75;5073421;28;20199;-75
2023/06/15 02:05:39;;;;;;;0.75;0.75;;;;;;;21.92;100.00;99899.53;5073635;28;20199;-75
2023/06/15 02:08:06;;;;;;;0.80;0.80;;;;;;;22.05;100.00;99895.53;5073354;28;20199;-75
2023/06/15 02:10:33;;;;;;;0.80;0.80;;;;;;;22.12;100.00;99897.06;5072879;28;20214;-75
2023/06/15 02:13:00;;;;;;;0.80;0.80;;;;;;;22.17;100.00;99897.78;5073168;28;20223;-75
2023/06/15 02:15:27;;;;;;;0.80;0.80;;;;;;;22.23;100.00;99902.81;5073041;28;20207;-75
2023/06/15 02:18:01;;;;;;;0.70;0.70;;;;;;;22.43;100.00;99895.97;5072891;28;20207;-75
2023/06/15 02:20:28;;;;;;;0.70;0.70;;;;;;;22.44;100.00;99895.06;5073008;28;20221;-75
2023/06/15 02:22:57;;;;;;;0.80;0.80;;;;;;;22.45;100.00;99888.84;5073089;28;20195;-76
2023/06/15 02:25:24;;;;;;;0.60;0.60;;;;;;;22.59;100.00;99897.13;5038156;28;20213;-75
2023/06/15 02:27:50;;;;;;;0.63;0.63;;;;;;;22.62;100.00;99897.00;5066348;28;20662;-76
2023/06/15 02:30:17;;;;;;;1.48;1.42;;;;;;;22.56;100.00;99884.91;5042279;28;20612;-77
2023/06/15 02:32:48;;;;;;;0.70;0.70;;;;;;;22.60;100.00;99891.81;5072088;28;20242;-75
2023/06/15 02:35:16;;;;;;;0.60;0.60;;;;;;;22.67;100.00;99881.88;5070169;28;20244;-75
2023/06/15 02:37:43;;;;;;;0.70;0.70;;;;;;;22.62;100.00;99894.38;5072391;28;20187;-75
2023/06/15 02:40:10;;;;;;;0.65;0.65;;;;;;;22.70;100.00;99887.06;5072253;28;20198;-75
2023/06/15 02:42:38;;;;;;;0.70;0.70;;;;;;;22.72;100.00;99887.88;5072726;28;20213;-75
2023/06/15 02:45:07;;;;;;;0.80;0.80;;;;;;;22.80;100.00;99880.50;5072691;28;20210;-75
2023/06/15 02:47:35;;;;;;;0.63;0.63;;;;;;;22.81;100.00;99892.81;5071014;28;20207;-75
2023/06/15 02:50:02;;;;;;;0.80;0.80;;;;;;;22.79;100.00;99886.72;5070190;28;20286;-75
2023/06/15 02:52:31;;;;;;;0.93;0.88;;;;;;;22.94;100.00;99872.91;5072042;28;20205;-75
2023/06/15 02:54:58;;;;;;;0.70;0.70;;;;;;;23.00;100.00;99904.41;5072321;28;20560;-75
2023/06/15 02:57:25;;;;;;;0.63;0.63;;;;;;;23.05;100.00;99891.84;5072412;28;20688;-75
2023/06/15 02:59:52;;;;;;;0.70;0.70;;;;;;;23.25;100.00;99912.25;5072598;28;20199;-75
2023/06/15 03:02:20;;;;;;;0.85;0.85;;;;;;;23.35;100.00;99910.97;5072446;28;20214;-75
2023/06/15 03:04:48;;;;;;;0.60;0.60;;;;;;;23.35;100.00;99886.28;5072716;28;20198;-76
2023/06/15 03:07:16;;;;;;;0.63;0.63;;;;;;;23.60;100.00;99895.84;5072404;28;20198;-74
2023/06/15 03:09:47;;;;;;;0.70;0.70;;;;;;;23.81;100.00;99887.94;5070516;28;20206;-76
2023/06/15 03:12:14;;;;;;;0.70;0.70;;;;;;;23.78;100.00;99875.69;5072217;28;20234;-75
2023/06/15 03:14:44;;;;;;;0.70;0.70;;;;;;;24.25;100.00;99908.13;5072380;28;20249;-75
2023/06/15 03:17:12;;;;;;;1.85;1.10;;;;;;;24.81;100.00;99887.00;5072243;28;20203;-75
2023/06/15 03:19:40;;;;;;;0.70;0.70;;;;;;;25.27;100.00;99893.69;5070586;28;20223;-75
2023/06/15 03:22:09;;;;;;;0.70;0.70;;;;;;;25.74;100.00;99915.31;5072144;28;20210;-74
2023/06/15 03:24:36;;;;;;;0.70;0.70;;;;;;;26.11;100.00;99885.91;5071503;28;20246;-74
2023/06/15 03:27:07;;;;;;;0.65;0.65;;;;;;;26.92;98.14;99913.59;5072104;28;20559;-74
2023/06/15 03:29:36;;;;;;;0.80;0.80;;;;;;;26.89;97.03;99919.94;5036625;28;20245;-74
2023/06/15 03:32:04;;;;;;;0.70;0.70;;;;;;;26.95;95.49;99916.06;5067181;28;20207;-76
2023/06/15 03:34:30;;;;;;;0.77;0.77;;;;;;;27.25;94.11;99918.84;5069459;28;20230;-76
2023/06/15 03:36:57;;;;;;;0.70;0.70;;;;;;;27.72;91.87;99926.84;5071531;28;20206;-76
2023/06/15 03:39:24;;;;;;;0.70;0.70;;;;;;;28.27;90.34;99932.47;5070882;28;20278;-76
2023/06/15 03:41:51;;;;;;;0.82;0.82;;;;;;;28.82;85.87;99935.31;5071331;28;20270;-75
2023/06/15 03:44:20;;;;;;;0.60;0.60;;;;;;;28.95;84.95;99946.94;5070293;28;20229;-76
2023/06/15 03:46:47;;;;;;;0.70;0.70;;;;;;;29.21;82.10;99940.81;5070837;28;20281;-76
2023/06/15 03:49:14;;;;;;;0.73;0.73;;;;;;;29.37;77.94;99943.38;5026911;28;20202;-76
2023/06/15 03:51:41;;;;;;;0.68;0.68;;;;;;;29.59;75.72;99938.38;5023327;28;20210;-75
2023/06/15 03:54:08;;;;;;;0.70;0.70;;;;;;;29.54;75.37;99940.47;5071056;28;20226;-76
2023/06/15 03:56:35;;;;;;;1.88;1.77;;;;;;;29.69;73.79;99935.94;5069703;28;20206;-75
2023/06/15 03:59:02;;;;;;;0.70;0.70;;;;;;;29.50;71.69;99872.19;5071605;28;20680;-75
2023/06/15 04:01:30;;;;;;;0.70;0.70;;;;;;;29.61;73.09;99939.09;5071719;28;20206;-75
2023/06/15 04:03:57;;;;;;;0.70;0.70;;;;;;;28.96;75.39;99936.19;5071861;28;20249;-75
2023/06/15 04:06:24;;;;;;;0.80;0.80;;;;;;;28.56;78.27;99919.09;5071313;28;20202;-75
2023/06/15 04:08:51;;;;;;;0.60;0.60;;;;;;;28.69;79.97;99934.34;5032061;28;20210;-75
2023/06/15 04:11:18;;;;;;;1.85;1.23;;;;;;;29.22;77.80;99933.63;5060712;28;20202;-75
2023/06/15 04:13:45;;;;;;;0.60;0.60;;;;;;;29.65;75.58;99924.59;5071230;28;20229;-76
2023/06/15 04:16:12;;;;;;;0.77;0.77;;;;;;;29.28;74.77;99915.47;5067485;28;20212;-78
2023/06/15 04:18:40;;;;;;;0.85;0.85;;;;;;;28.99;79.03;99930.66;5060932;28;20194;-77
2023/06/15 04:21:07;;;;;;;0.77;0.77;;;;;;;29.39;78.89;99931.66;5073413;28;20213;-77
2023/06/15 04:23:34;;;;;;;0.60;0.60;;;;;;;29.65;76.35;99924.59;5073701;28;20220;-78
2023/06/15 04:26:03;;;;;;;0.80;0.80;;;;;;;30.47;71.12;99937.78;5075665;28;20202;-77
2023/06/15 04:28:30;;;;;;;0.70;0.70;;;;;;;30.16;71.57;99933.66;5075666;28;20226;-78
2023/06/15 04:31:10;;;;;;;0.60;0.60;;;;;;;30.11;72.54;99932.25;5075481;28;20226;-78
2023/06/15 04:33:41;;;;;;;0.70;0.70;;;;;;;30.44;69.69;99930.81;5075359;28;20230;-78
2023/06/15 04:36:12;;;;;;;0.70;0.70;;;;;;;30.34;69.63;99932.41;5041978;28;20281;-78
2023/06/15 04:38:40;;;;;;;0.90;0.90;;;;;;;29.59;72.13;99929.47;5075085;28;20226;-77
2023/06/15 04:41:07;;;;;;;0.60;0.60;;;;;;;28.88;75.92;99930.47;5075351;28;20228;-78
2023/06/15 04:43:35;;;;;;;0.82;0.82;;;;;;;28.55;80.79;99941.38;5075613;28;20206;-79
2023/06/15 04:46:02;;;;;;;0.70;0.70;;;;;;;28.42;81.18;99932.41;5073266;28;20297;-78
2023/06/15 04:48:28;;;;;;;0.90;0.90;;;;;;;28.43;81.68;99941.28;5074928;28;20203;-79
2023/06/15 04:50:56;;;;;;;2.40;1.15;;;;;;;28.10;82.95;99943.28;5069717;28;20261;-79
2023/06/15 04:53:24;;;;;;;0.80;0.80;;;;;;;27.94;85.94;99937.94;5073995;28;20222;-76
2023/06/15 04:55:51;;;;;;;0.70;0.70;;;;;;;28.56;82.42;99942.22;5076009;28;20607;-78
2023/06/15 04:58:18;;;;;;;0.70;0.70;;;;;;;28.63;79.95;99946.25;5076023;28;20669;-78
2023/06/15 05:00:44;;;;;;;0.80;0.80;;;;;;;28.85;78.72;99954.69;5075584;28;20234;-79
2023/06/15 05:03:11;;;;;;;0.70;0.70;;;;;;;28.95;76.81;99961.16;5075928;28;20209;-79
2023/06/15 05:05:38;;;;;;;0.70;0.70;;;;;;;28.48;78.35;99963.19;5075089;28;20205;-79
2023/06/15 05:08:05;;;;;;;0.60;0.60;;;;;;;28.16;81.16;99951.78;5075301;28;20217;-79
2023/06/15 05:10:33;;;;;;;0.60;0.60;;;;;;;27.65;85.02;99952.13;5075291;28;20245;-79
2023/06/15 05:13:00;;;;;;;0.93;0.93;;;;;;;27.60;85.97;99949.72;5075043;28;20612;-80
2023/06/15 05:15:27;;;;;;;0.68;0.68;;;;;;;28.36;82.39;99966.59;5075165;28;20233;-76
2023/06/15 05:17:53;;;;;;;0.70;0.70;;;;;;;29.28;77.27;99954.66;5074660;28;20206;-78
2023/06/15 05:20:21;;;;;;;0.77;0.77;;;;;;;30.59;68.73;99961.03;5060734;28;20202;-78
2023/06/15 05:22:48;;;;;;;0.95;0.88;;;;;;;31.42;62.92;99971.16;5075357;28;20202;-77
2023/06/15 05:25:14;;;;;;;0.68;0.68;;;;;;;31.59;62.04;99966.38;5040144;28;20206;-78
2023/06/15 05:27:43;;;;;;;0.75;0.75;;;;;;;31.74;61.21;99974.19;5073149;28;20197;-79
2023/06/15 05:30:11;;;;;;;0.60;0.60;;;;;;;31.36;62.29;99957.31;5075044;28;20238;-79
2023/06/15 05:32:39;;;;;;;0.60;0.60;;;;;;;31.08;62.79;99974.53;5039664;28;20240;-78
2023/06/15 05:35:07;;;;;;;0.70;0.70;;;;;;;30.71;64.59;99972.72;5074742;28;20226;-86
2023/06/15 05:37:34;;;;;;;0.50;0.50;;;;;;;30.29;68.04;99947.88;5023125;28;20203;-83
2023/06/15 05:40:02;;;;;;;0.60;0.60;;;;;;;31.10;63.96;99947.63;5067610;28;20695;-81
2023/06/15 05:42:29;;;;;;;0.60;0.60;;;;;;;31.19;63.28;99971.94;5074386;28;20256;-83
2023/06/15 05:44:57;;;;;;;0.80;0.80;;;;;;;31.04;64.51;99982.91;5074017;28;20203;-84
2023/06/15 05:47:24;;;;;;;0.60;0.60;;;;;;;30.76;65.02;99976.75;5071225;28;20199;-82
2023/06/15 05:49:51;;;;;;;0.73;0.73;;;;;;;30.16;67.53;99978.25;5063667;28;20213;-80
2023/06/15 05:52:19;;;;;;;0.88;0.88;;;;;;;29.34;71.87;99978.31;5074297;28;20233;-78
2023/06/15 05:54:46;;;;;;;0.60;0.60;;;;;;;28.75;75.91;99974.88;5074164;28;20218;-80
2023/06/15 05:57:13;;;;;;;0.80;0.80;;;;;;;28.57;75.53;99981.31;5059683;28;20203;-77
2023/06/15 05:59:40;;;;;;;0.73;0.73;;;;;;;28.78;74.71;99964.03;5074253;28;20210;-83
2023/06/15 06:02:09;;;;;;;0.68;0.68;;;;;;;28.52;71.44;99964.72;5038949;28;20207;-82
2023/06/15 06:04:36;;;;;;;0.70;0.70;;;;;;;28.03;74.64;99975.63;5074299;28;20207;-81
2023/06/15 06:07:05;;;;;;;0.80;0.80;;;;;;;28.07;79.04;99969.16;5074059;28;20222;-82
2023/06/15 06:09:33;;;;;;;0.88;0.88;;;;;;;28.73;71.21;99965.25;5073332;28;20256;-84
2023/06/15 06:12:00;;;;;;;0.60;0.60;;;;;;;28.97;70.55;99959.22;5073895;28;20226;-76
2023/06/15 06:14:27;;;;;;;0.70;0.70;;;;;;;29.31;69.41;99951.81;5073920;28;20230;-82
2023/06/15 06:16:54;;;;;;;0.60;0.60;;;;;;;29.68;69.91;99963.66;5074024;28;20264;-80
2023/06/15 06:19:22;;;;;;;0.52;0.52;;;;;;;29.29;66.69;99959.91;5063352;28;20195;-78
2023/06/15 06:21:49;;;;;;;0.70;0.70;;;;;;;29.49;66.58;99966.66;5060026;28;20209;-78
2023/06/15 06:24:16;;;;;;;0.85;0.85;;;;;;;30.30;63.86;99965.66;5073313;28;20214;-78
2023/06/15 06:26:43;;;;;;;0.80;0.80;;;;;;;30.31;62.28;99963.84;5073114;28;20202;-78
2023/06/15 06:29:10;;;;;;;0.70;0.70;;;;;;;31.03;59.46;99967.78;5073396;28;20583;-78
2023/06/15 06:31:37;;;;;;;1.23;1.23;;;;;;;30.93;59.89;99971.06;5073173;28;20260;-79
2023/06/15 06:34:03;;;;;;;0.80;0.80;;;;;;;31.18;56.72;99946.09;5073349;28;20222;-78
2023/06/15 06:36:32;;;;;;;1.27;1.27;;;;;;;31.30;57.80;99980.06;5073143;28;20623;-78
2023/06/15 06:38:59;;;;;;;0.65;0.65;;;;;;;31.32;58.43;99966.56;5073236;28;20293;-78
2023/06/15 06:41:26;;;;;;;0.60;0.60;;;;;;;31.89;58.48;99966.81;5073009;28;20194;-79
2023/06/15 06:43:53;;;;;;;1.00;1.00;;;;;;;31.14;59.85;99967.88;5037510;28;20197;-78
2023/06/15 06:46:22;;;;;;;0.70;0.70;;;;;;;31.36;60.72;99974.25;5073174;28;20198;-78
2023/06/15 06:48:49;;;;;;;0.70;0.70;;;;;;;30.60;63.03;99977.94;5073412;28;20222;-78
2023/06/15 06:51:16;;;;;;;0.70;0.70;;;;;;;30.37;63.69;99972.31;5038110;28;20191;-78
2023/06/15 06:53:44;;;;;;;0.82;0.82;;;;;;;30.38;62.96;99968.69;5072759;28;20198;-78
2023/06/15 06:56:10;;;;;;;4.57;1.45;;;;;;;28.72;68.27;99975.06;5072826;28;20195;-79
2023/06/15 06:58:37;;;;;;;0.60;0.60;;;;;;;28.85;69.58;99977.84;5072969;28;20207;-78
2023/06/15 07:01:04;;;;;;;0.80;0.80;;;;;;;28.70;73.08;99976.97;5072772;28;20190;-79
2023/06/15 07:03:31;;;;;;;0.70;0.70;;;;;;;28.94;71.51;99972.78;5072772;28;20201;-78
2023/06/15 07:05:58;;;;;;;0.80;0.80;;;;;;;28.76;73.08;99947.22;5037725;28;20201;-78
2023/06/15 07:08:25;;;;;;;0.70;0.70;;;;;;;28.55;74.29;99973.38;5072524;28;20199;-77
2023/06/15 07:10:53;;;;;;;1.05;1.05;;;;;;;28.48;77.97;99971.19;5072578;28;20203;-78
2023/06/15 07:13:20;;;;;;;0.90;0.90;;;;;;;28.49;77.12;99964.91;5072608;28;20203;-80
2023/06/15 07:15:46;;;;;;;0.88;0.82;;;;;;;28.51;76.67;99954.97;5072562;28;20230;-78
2023/06/15 07:18:14;;;;;;;0.70;0.70;;;;;;;28.73;76.35;99966.09;5072640;28;20195;-78
2023/06/15 07:20:41;;;;;;;1.13;1.13;;;;;;;28.85;75.30;99970.69;5072813;28;20206;-78
2023/06/15 07:23:08;;;;;;;0.80;0.80;;;;;;;28.90;75.24;99967.72;5072269;28;20242;-77
2023/06/15 07:25:35;;;;;;;1.23;1.10;;;;;;;28.37;80.67;99963.81;5073062;28;20198;-78
2023/06/15 07:28:03;;;;;;;0.70;0.70;;;;;;;28.78;80.37;99968.50;5073360;28;20729;-80
2023/06/15 07:30:30;;;;;;;0.60;0.60;;;;;;;28.53;81.71;99961.09;5073092;28;20654;-78
2023/06/15 07:32:57;;;;;;;1.20;1.20;;;;;;;29.10;78.75;99963.81;5072171;28;20686;-78
2023/06/15 07:35:24;;;;;;;0.70;0.70;;;;;;;29.12;74.11;99952.06;5053344;28;20227;-78
2023/06/15 07:37:50;;;;;;;0.70;0.70;;;;;;;29.44;72.46;99958.06;5037120;28;20704;-78
2023/06/15 07:40:17;;;;;;;0.70;0.70;;;;;;;29.42;70.19;99955.50;5072386;28;20256;-78
2023/06/15 07:42:44;;;;;;;0.68;0.68;;;;;;;29.28;70.92;99952.00;5072216;28;20281;-78
2023/06/15 07:45:12;;;;;;;0.70;0.70;;;;;;;29.41;71.72;99952.91;5053435;28;20256;-78
2023/06/15 07:47:39;;;;;;;0.82;0.82;;;;;;;29.40;66.99;99933.34;5072031;28;20202;-78
2023/06/15 07:50:07;;;;;;;0.85;0.85;;;;;;;29.48;65.65;99944.41;5071896;28;20259;-78
2023/06/15 07:52:36;;;;;;;0.70;0.70;;;;;;;29.57;63.91;99942.09;5037192;28;20206;-78
2023/06/15 07:55:05;;;;;;;0.80;0.80;;;;;;;29.74;61.98;99945.38;5036428;28;20766;-78
2023/06/15 07:57:31;;;;;;;0.80;0.80;;;;;;;30.00;60.00;99941.84;5072002;28;20252;-79
2023/06/15 07:59:58;;;;;;;0.70;0.70;;;;;;;29.33;61.31;99939.19;5072026;28;20206;-78
2023/06/15 08:02:26;;;;;;;0.70;0.70;;;;;;;29.66;62.53;99938.81;5071553;28;20198;-78
2023/06/15 08:04:53;;;;;;;0.57;0.57;;;;;;;29.86;61.59;99927.69;5071986;28;20264;-78
2023/06/15 08:07:20;;;;;;;0.60;0.60;;;;;;;29.55;62.79;99923.47;5072257;28;20191;-78
2023/06/15 08:09:47;;;;;;;0.60;0.60;;;;;;;29.69;65.16;99926.09;5073497;28;20199;-77
2023/06/15 08:12:14;;;;;;;0.68;0.68;;;;;;;30.24;60.91;99943.84;5071908;28;20646;-80
2023/06/15 08:14:41;;;;;;;0.57;0.57;;;;;;;29.89;59.16;99940.88;5036281;28;20721;-79
2023/06/15 08:17:08;;;;;;;0.60;0.60;;;;;;;30.69;57.25;99935.31;5071632;28;20248;-77
2023/06/15 08:19:36;;;;;;;0.70;0.70;;;;;;;30.67;58.30;99939.94;5072170;28;20593;-79
2023/06/15 08:22:03;;;;;;;0.60;0.60;;;;;;;31.39;56.59;99939.19;5071535;28;20199;-78
2023/06/15 08:24:30;;;;;;;0.65;0.65;;;;;;;31.81;54.42;99937.88;5071543;28;20198;-78
2023/06/15 08:26:56;;;;;;;0.70;0.70;;;;;;;32.23;52.02;99933.78;5071427;28;20194;-77
2023/06/15 08:29:23;;;;;;;0.68;0.68;;;;;;;31.99;52.08;99935.63;5071327;28;20207;-78
2023/06/15 08:31:50;;;;;;;0.70;0.70;;;;;;;32.27;51.42;99939.78;5071208;28;20608;-79
2023/06/15 08:34:17;;;;;;;0.80;0.80;;;;;;;32.11;52.02;99940.09;5071106;28;20251;-78
2023/06/15 08:36:46;;;;;;;0.70;0.70;;;;;;;32.01;52.51;99935.50;5071164;28;20252;-77
2023/06/15 08:39:12;;;;;;;0.60;0.60;;;;;;;32.03;49.24;99934.44;5071558;28;20242;-78
2023/06/15 08:41:40;;;;;;;0.90;0.90;;;;;;;31.54;49.09;99918.47;5036103;28;20195;-78
2023/06/15 08:44:08;;;;;;;0.68;0.68;;;;;;;31.64;49.18;99932.94;5033333;28;20227;-79
2023/06/15 08:46:35;;;;;;;0.68;0.68;;;;;;;31.06;48.88;99927.38;5071548;28;20207;-78
2023/06/15 08:49:03;;;;;;;0.70;0.70;;;;;;;31.56;49.88;99927.28;5067402;28;20199;-78
2023/06/15 08:51:30;;;;;;;0.70;0.70;;;;;;;30.67;49.82;99904.28;5051300;28;20627;-77
2023/06/15 08:53:59;;;;;;;0.60;0.60;;;;;;;31.17;50.18;99919.44;5032132;28;20203;-78
2023/06/15 08:56:26;;;;;;;0.60;0.60;;;;;;;30.91;50.90;99916.78;5049285;28;20245;-78
2023/06/15 08:58:53;;;;;;;0.60;0.60;;;;;;;30.80;51.89;99921.19;5074889;28;20230;-77
2023/06/15 09:01:22;;;;;;;0.70;0.70;;;;;;;30.31;53.08;99894.28;5074263;28;20202;-78
2023/06/15 09:03:51;;;;;;;0.70;0.70;;;;;;;30.88;52.58;99917.00;5073189;28;20230;-78
2023/06/15 09:06:19;;;;;;;0.82;0.82;;;;;;;31.26;51.61;99897.31;5071379;28;20636;-77
2023/06/15 09:08:46;;;;;;;1.25;1.25;;;;;;;31.19;49.86;99918.34;5074366;28;20669;-77
2023/06/15 09:11:15;;;;;;;0.82;0.82;;;;;;;31.14;50.64;99900.91;5074359;28;20195;-77
2023/06/15 09:13:43;;;;;;;0.60;0.60;;;;;;;31.20;51.58;99908.50;5074370;28;20203;-77
2023/06/15 09:16:10;;;;;;;0.70;0.70;;;;;;;31.22;50.17;99907.41;5074454;28;20222;-77
2023/06/15 09:18:44;;;;;;;0.50;0.50;;;;;;;31.59;48.97;99904.72;5074721;28;20285;-77
2023/06/15 09:21:16;;;;;;;0.60;0.60;;;;;;;31.95;49.10;99905.50;5074323;28;20220;-78
2023/06/15 09:23:44;;;;;;;0.60;0.60;;;;;;;32.30;48.69;99907.34;5075930;28;20198;-79
2023/06/15 09:26:22;;;;;;;0.80;0.80;;;;;;;32.65;46.61;99913.50;5072693;28;20284;-78
2023/06/15 09:28:49;;;;;;;0.90;0.90;;;;;;;31.77;47.37;99901.53;5067670;28;20236;-78
2023/06/15 09:31:29;;;;;;;0.70;0.70;;;;;;;31.85;47.46;99882.19;5077935;28;20630;-78
2023/06/15 09:34:04;;;;;;;0.60;0.60;;;;;;;31.80;47.61;99903.97;5075850;28;20226;-78
2023/06/15 09:36:36;;;;;;;0.80;0.80;;;;;;;32.30;46.80;99907.34;5056631;28;20659;-77
2023/06/15 09:39:04;;;;;;;0.68;0.68;;;;;;;32.36;46.23;99904.16;5066831;28;20225;-77
2023/06/15 09:41:33;;;;;;;0.70;0.70;;;;;;;31.76;46.40;99821.19;5074189;28;20203;-75
2023/06/15 09:44:04;;;;;;;0.80;0.80;;;;;;;31.56;45.72;99889.75;5073793;28;20234;-77
2023/06/15 09:46:31;;;;;;;0.70;0.70;;;;;;;31.65;45.64;99886.34;5070611;28;20199;-77
2023/06/15 09:48:58;;;;;;;0.80;0.80;;;;;;;31.77;45.53;99866.66;5062727;28;20263;-77
2023/06/15 09:51:29;;;;;;;0.80;0.80;;;;;;;32.11;44.94;99890.94;5073401;28;20206;-77
2023/06/15 09:53:58;;;;;;;0.70;0.70;;;;;;;31.67;44.61;99822.75;5074105;28;20277;-77
2023/06/15 09:56:25;;;;;;;0.50;0.50;;;;;;;32.15;44.10;99860.22;5025543;28;20688;-79
2023/06/15 09:58:53;;;;;;;0.70;0.70;;;;;;;32.14;43.71;99879.97;5074378;28;20203;-78
2023/06/15 10:01:26;;;;;;;0.63;0.63;;;;;;;32.21;44.54;99876.72;5075316;28;20634;-77
2023/06/15 10:03:54;;;;;;;0.80;0.80;;;;;;;32.20;43.87;99866.94;5060236;28;20669;-78
2023/06/15 10:06:25;;;;;;;0.70;0.70;;;;;;;32.62;43.33;99852.00;5063555;28;20210;-77
2023/06/15 10:08:57;;;;;;;0.70;0.70;;;;;;;32.83;43.22;99871.75;5067762;28;20678;-77
2023/06/15 10:11:25;;;;;;;0.70;0.70;;;;;;;32.17;43.94;99858.28;5064493;28;20597;-76
2023/06/15 10:14:01;;;;;;;0.65;0.65;;;;;;;33.09;42.90;99868.81;5073278;28;20661;-78
2023/06/15 10:16:30;;;;;;;0.63;0.63;;;;;;;32.61;42.97;99846.72;5073763;28;20226;-78
2023/06/15 10:19:02;;;;;;;0.75;0.75;;;;;;;32.80;43.43;99858.59;5072498;28;20286;-78
2023/06/15 10:21:30;;;;;;;0.50;0.50;;;;;;;32.32;44.29;99862.47;5073203;28;20597;-75
2023/06/15 10:24:09;;;;;;;0.98;0.90;;;;;;;32.27;43.14;99864.63;5070914;28;20206;-77
2023/06/15 10:26:36;;;;;;;0.50;0.50;;;;;;;32.22;43.31;99853.38;5062912;28;20213;-78
2023/06/15 10:29:12;;;;;;;1.23;1.23;;;;;;;32.54;42.25;99850.84;5073526;28;20592;-79
2023/06/15 10:31:47;;;;;;;0.70;0.70;;;;;;;33.11;41.61;99845.38;5055452;28;20245;-78
2023/06/15 10:34:20;;;;;;;0.60;0.60;;;;;;;32.93;41.39;99848.53;5073174;28;20664;-78
2023/06/15 10:36:55;;;;;;;0.77;0.77;;;;;;;33.20;41.04;99844.63;5072895;28;20257;-77
2023/06/15 10:39:28;;;;;;;0.50;0.50;;;;;;;33.18;41.54;99835.81;5073136;28;20205;-78
2023/06/15 10:41:57;;;;;;;0.50;0.50;;;;;;;33.07;41.85;99839.34;5073034;28;20206;-78
2023/06/15 10:44:33;;;;;;;0.73;0.73;;;;;;;33.41;41.81;99837.47;5073087;28;20218;-78
2023/06/15 10:47:07;;;;;;;0.60;0.60;;;;;;;33.68;42.18;99834.31;5072767;28;20229;-77
2023/06/15 10:49:34;;;;;;;0.50;0.50;;;;;;;32.96;41.55;99842.09;5072997;28;20207;-77
2023/06/15 10:52:03;;;;;;;0.60;0.60;;;;;;;33.04;42.88;99836.06;5073014;28;20288;-79
2023/06/15 10:54:30;;;;;;;0.70;0.70;;;;;;;32.73;42.64;99826.97;5069880;28;20198;-78
2023/06/15 10:56:58;;;;;;;0.60;0.60;;;;;;;31.91;41.65;99659.94;5046581;28;20231;-78
2023/06/15 10:59:41;;;;;;;0.70;0.70;;;;;;;32.92;40.80;99817.31;5053146;28;20609;-78
2023/06/15 11:02:44;;;;;;;0.68;0.68;;;;;;;33.33;41.57;99821.97;5071815;28;20206;-78
2023/06/15 11:05:12;;;;;;;0.70;0.70;;;;;;;33.98;42.29;99812.03;5072628;28;20660;-78
2023/06/15 11:07:40;;;;;;;0.65;0.65;;;;;;;34.23;40.73;99825.09;5072459;28;20267;-78
2023/06/15 11:10:13;;;;;;;0.60;0.60;;;;;;;33.93;39.15;99816.97;5072238;28;20233;-78
2023/06/15 11:12:41;;;;;;;0.60;0.60;;;;;;;33.30;40.26;99819.53;5072780;28;20289;-78
2023/06/15 11:15:11;;;;;;;0.80;0.80;;;;;;;33.51;41.06;99826.78;5072506;28;20276;-79
2023/06/15 11:17:59;;;;;;;0.60;0.60;;;;;;;34.41;39.89;99826.19;5072980;28;20202;-79
2023/06/15 11:20:42;;;;;;;0.70;0.70;;;;;;;35.02;38.23;99821.59;5010249;28;20212;-77
2023/06/15 11:23:11;;;;;;;0.60;0.60;;;;;;;34.52;38.28;99799.16;4952534;29;20198;-78
2023/06/15 11:25:38;;;;;;;0.60;0.60;;;;;;;34.22;39.78;99824.25;4952002;29;20234;-78
2023/06/15 11:28:06;;;;;;;0.80;0.80;;;;;;;33.15;40.55;99806.50;4951809;29;20212;-77
2023/06/15 11:30:35;;;;;;;0.70;0.70;;;;;;;32.99;41.19;99819.47;4951072;28;20717;-78
2023/06/15 11:33:02;;;;;;;0.80;0.80;;;;;;;33.64;41.17;99822.13;4951471;29;20203;-78
2023/06/15 11:35:30;;;;;;;0.70;0.70;;;;;;;34.14;40.16;99820.53;4951373;29;20250;-79
2023/06/15 11:37:57;;;;;;;0.80;0.80;;;;;;;32.76;41.26;99806.09;4949884;28;20210;-77